logo
Search for airport 
image banner adimage banner adimage banner ad
image banner ad

EPWL - Wielkie Lniska

Located in , Poland

ICAO - , IATA -

Data provided by Airmate  

General information

Coordinates: N53°28'29" E18°50'29"
Elevation is 245 feet MSL.
 
View others Airports in Kuyavia-Pomerania

Operational data

Special qualification required
Current time UTC:
Current local time:
Weather at : EPMB - Malbork ( 64 km )
TAF: TAF EPMB 130500Z 1306/1318 24004KT 9999 OVC015 BECMG 1312/1314 27010KT SCT030
View NOTAMs / SUP AIP / TFR affecting this airport [VIEW]
Communications frequencies: [VIEW]

Runways:

Airport contact information

Address: Poland

Satellite view of EPWL